メインページ
METAR-TAF:

METAR-TAF

空港 :

Naval Air Station Whidbey Island (Ault Field)

オークハーバー, ワシントン, アメリカ合衆国

緯度: 48-20-57N, 経度: 122-39-02W, 海抜: 14m

現時点の気象観測

当レポートは48分前の01:56(UTC)に作成
西/北西の風 12kt
気温 14°C
湿度 72%
気圧 1012 hPa
視程: 16.1km
高度2500ftの雲はほとんどない
高度6000ftの千切れ雲あり
高度12000ftの千切れ雲あり
高度20000ftの千切れ雲あり

METAR: KNUW 260156Z 29012KT 10SM FEW025 BKN060 BKN120 BKN200 14/09 A2989 RMK AO2 SLP121 T01390089

時間: 19:44 (02:44 UTC)

予報

予報は25日の 23時(UTC)から 26日の 23時(UTC)まで有効
西/南西の風 10kt
視程10km以上
高度2000ftの雲は散在している
高度6000ftの雲は散在している
高度12000ftの千切れ雲あり
高度20000ftの千切れ雲あり
近辺でにわか雨
25日の 23時(UTC)から 26日の 03時(UTC)まで一時的に
西/北西の風 15kt、最大21ktの突風を伴う
視程10km以上
高度3000ftの千切れ雲あり
高度6000ftの千切れ雲あり
弱いにわか雨
26日の 0300時(UTC)から
西/南西の風 12kt、最大18ktの突風を伴う
視程10km以上
高度1500ftの雲は散在している
高度3500ftの雲は散在している
高度12000ftの千切れ雲あり
高度20000ftの千切れ雲あり
近辺でにわか雨
26日の 1200時(UTC)から
変向風 6kt
視程: 9000m
高度2500ftの千切れ雲あり
高度6000ftの千切れ雲あり

TAF: KNUW 2523/2623 24010KT 9999 VCSH SCT020 SCT060 BKN120 BKN200 640809 530009 QNH2975INS TEMPO 2523/2603 30015G21KT 9999 -SHRA BKN030 BKN060 FM260300 25012G18KT 9999 VCSH SCT015 SCT035 BKN120 BKN200 640709 530009 QNH2985INS FM261200 VRB06KT 9000 BR BKN025 BKN060 640709 640709 500000 QNH2992INS T18/2523Z T10/2611Z FS30028

4,000以上の空港の気象観測と天気予報(METAR報とTAF報)

利用可能な観測所は地図上に黄色い丸と赤い丸で示す。

丸の上にカーソルを重ねると観測所名を参照できる。

次にクリックすると気象観測と天気予報を参照できる。

マップの切り替え:黒色「×」印の緑ボタンをクリックして拡大、「-」印の緑ボタンをクリックして縮小、緑色の三角印をクリックして隣りの地図に切り替え


METAR-TAF: